sensor_id;sensor_type;location;lat;lon;timestamp;P1;durP1;ratioP1;P2;durP2;ratioP2
65234;SDS011;51820;48.374;10.930;2023-08-30T00:01:04;12.50;;;7.43;;
65234;SDS011;51820;48.374;10.930;2023-08-30T00:03:32;11.80;;;7.20;;
65234;SDS011;51820;48.374;10.930;2023-08-30T00:06:04;14.03;;;7.70;;
65234;SDS011;51820;48.374;10.930;2023-08-30T00:09:04;12.23;;;8.13;;
65234;SDS011;51820;48.374;10.930;2023-08-30T00:11:25;10.80;;;7.15;;
65234;SDS011;51820;48.374;10.930;2023-08-30T00:14:01;12.20;;;8.00;;
65234;SDS011;51820;48.374;10.930;2023-08-30T00:16:36;11.00;;;7.05;;
65234;SDS011;51820;48.374;10.930;2023-08-30T00:19:04;14.03;;;7.27;;
65234;SDS011;51820;48.374;10.930;2023-08-30T00:21:33;10.82;;;7.05;;
65234;SDS011;51820;48.374;10.930;2023-08-30T00:24:02;10.50;;;7.40;;
65234;SDS011;51820;48.374;10.930;2023-08-30T00:26:32;13.02;;;7.00;;
65234;SDS011;51820;48.374;10.930;2023-08-30T00:29:04;12.15;;;7.40;;
65234;SDS011;51820;48.374;10.930;2023-08-30T00:31:32;12.43;;;6.93;;
65234;SDS011;51820;48.374;10.930;2023-08-30T00:34:02;12.52;;;7.32;;
65234;SDS011;51820;48.374;10.930;2023-08-30T00:36:30;12.18;;;7.90;;
65234;SDS011;51820;48.374;10.930;2023-08-30T00:38:59;12.32;;;7.40;;
65234;SDS011;51820;48.374;10.930;2023-08-30T00:41:27;12.57;;;7.60;;
65234;SDS011;51820;48.374;10.930;2023-08-30T00:43:56;10.70;;;7.17;;
65234;SDS011;51820;48.374;10.930;2023-08-30T00:46:26;10.55;;;7.13;;
65234;SDS011;51820;48.374;10.930;2023-08-30T00:48:54;10.32;;;6.93;;
65234;SDS011;51820;48.374;10.930;2023-08-30T00:51:26;12.02;;;7.18;;
65234;SDS011;51820;48.374;10.930;2023-08-30T00:53:55;11.18;;;6.97;;
65234;SDS011;51820;48.374;10.930;2023-08-30T00:56:23;11.10;;;7.40;;
65234;SDS011;51820;48.374;10.930;2023-08-30T00:58:53;11.07;;;7.28;;
65234;SDS011;51820;48.374;10.930;2023-08-30T01:01:21;11.98;;;7.95;;
65234;SDS011;51820;48.374;10.930;2023-08-30T01:03:50;10.52;;;7.10;;
65234;SDS011;51820;48.374;10.930;2023-08-30T01:06:18;12.32;;;7.80;;
65234;SDS011;51820;48.374;10.930;2023-08-30T01:08:48;12.23;;;7.63;;
65234;SDS011;51820;48.374;10.930;2023-08-30T01:11:19;11.27;;;7.25;;
65234;SDS011;51820;48.374;10.930;2023-08-30T01:13:55;12.48;;;7.88;;
65234;SDS011;51820;48.374;10.930;2023-08-30T01:16:32;12.27;;;7.80;;
65234;SDS011;51820;48.374;10.930;2023-08-30T01:19:01;11.32;;;7.10;;
65234;SDS011;51820;48.374;10.930;2023-08-30T01:21:53;12.43;;;7.53;;
65234;SDS011;51820;48.374;10.930;2023-08-30T01:24:37;12.20;;;7.80;;
65234;SDS011;51820;48.374;10.930;2023-08-30T01:27:11;11.05;;;7.35;;
65234;SDS011;51820;48.374;10.930;2023-08-30T01:29:43;12.10;;;7.32;;
65234;SDS011;51820;48.374;10.930;2023-08-30T01:32:15;10.93;;;7.15;;
65234;SDS011;51820;48.374;10.930;2023-08-30T01:34:45;11.17;;;7.53;;
65234;SDS011;51820;48.374;10.930;2023-08-30T01:37:14;11.38;;;7.30;;
65234;SDS011;51820;48.374;10.930;2023-08-30T01:39:43;10.93;;;7.30;;
65234;SDS011;51820;48.374;10.930;2023-08-30T01:42:17;10.70;;;7.20;;
65234;SDS011;51820;48.374;10.930;2023-08-30T01:44:49;12.63;;;7.65;;
65234;SDS011;51820;48.374;10.930;2023-08-30T01:47:21;12.17;;;7.73;;
65234;SDS011;51820;48.374;10.930;2023-08-30T01:49:54;11.93;;;7.25;;
65234;SDS011;51820;48.374;10.930;2023-08-30T01:52:24;12.90;;;7.43;;
65234;SDS011;51820;48.374;10.930;2023-08-30T01:54:59;13.27;;;7.97;;
65234;SDS011;51820;48.374;10.930;2023-08-30T01:57:35;12.50;;;8.15;;
65234;SDS011;51820;48.374;10.930;2023-08-30T02:00:05;11.13;;;7.17;;
65234;SDS011;51820;48.374;10.930;2023-08-30T02:02:43;12.15;;;7.38;;
65234;SDS011;51820;48.374;10.930;2023-08-30T02:05:20;12.02;;;7.28;;
65234;SDS011;51820;48.374;10.930;2023-08-30T02:07:50;12.48;;;7.65;;
65234;SDS011;51820;48.374;10.930;2023-08-30T02:10:22;12.70;;;7.43;;
65234;SDS011;51820;48.374;10.930;2023-08-30T02:12:54;11.83;;;7.27;;
65234;SDS011;51820;48.374;10.930;2023-08-30T02:15:24;12.38;;;8.00;;
65234;SDS011;51820;48.374;10.930;2023-08-30T02:17:54;12.43;;;8.07;;
65234;SDS011;51820;48.374;10.930;2023-08-30T02:20:23;11.38;;;7.20;;
65234;SDS011;51820;48.374;10.930;2023-08-30T02:22:52;13.65;;;8.45;;
65234;SDS011;51820;48.374;10.930;2023-08-30T02:25:20;10.53;;;7.13;;
65234;SDS011;51820;48.374;10.930;2023-08-30T02:27:50;11.82;;;7.72;;
65234;SDS011;51820;48.374;10.930;2023-08-30T02:30:20;11.88;;;8.05;;
65234;SDS011;51820;48.374;10.930;2023-08-30T02:32:52;13.30;;;7.75;;
65234;SDS011;51820;48.374;10.930;2023-08-30T02:35:21;12.90;;;7.88;;
65234;SDS011;51820;48.374;10.930;2023-08-30T02:37:52;11.03;;;7.07;;
65234;SDS011;51820;48.374;10.930;2023-08-30T02:40:21;13.27;;;7.38;;
65234;SDS011;51820;48.374;10.930;2023-08-30T02:42:49;12.60;;;8.10;;
65234;SDS011;51820;48.374;10.930;2023-08-30T02:45:21;11.23;;;6.95;;
65234;SDS011;51820;48.374;10.930;2023-08-30T02:47:50;11.65;;;7.32;;
65234;SDS011;51820;48.374;10.930;2023-08-30T02:50:18;13.90;;;7.50;;
65234;SDS011;51820;48.374;10.930;2023-08-30T02:52:47;14.05;;;8.02;;
65234;SDS011;51820;48.374;10.930;2023-08-30T02:55:15;12.80;;;8.00;;
65234;SDS011;51820;48.374;10.930;2023-08-30T02:57:44;11.70;;;7.38;;
65234;SDS011;51820;48.374;10.930;2023-08-30T03:00:14;13.02;;;8.20;;
65234;SDS011;51820;48.374;10.930;2023-08-30T03:02:51;13.53;;;8.00;;
65234;SDS011;51820;48.374;10.930;2023-08-30T03:05:20;12.50;;;8.23;;
65234;SDS011;51820;48.374;10.930;2023-08-30T03:07:49;12.48;;;8.38;;
65234;SDS011;51820;48.374;10.930;2023-08-30T03:10:21;12.05;;;7.75;;
65234;SDS011;51820;48.374;10.930;2023-08-30T03:12:49;13.60;;;8.30;;
65234;SDS011;51820;48.374;10.930;2023-08-30T03:15:19;13.07;;;7.37;;
65234;SDS011;51820;48.374;10.930;2023-08-30T03:17:56;16.05;;;8.35;;
65234;SDS011;51820;48.374;10.930;2023-08-30T03:20:25;12.40;;;7.80;;
65234;SDS011;51820;48.374;10.930;2023-08-30T03:22:55;13.73;;;7.95;;
65234;SDS011;51820;48.374;10.930;2023-08-30T03:25:24;17.80;;;8.35;;
65234;SDS011;51820;48.374;10.930;2023-08-30T03:27:53;13.30;;;7.67;;
65234;SDS011;51820;48.374;10.930;2023-08-30T03:30:22;13.27;;;7.68;;
65234;SDS011;51820;48.374;10.930;2023-08-30T03:32:52;11.85;;;7.32;;
65234;SDS011;51820;48.374;10.930;2023-08-30T03:35:22;13.02;;;7.63;;
65234;SDS011;51820;48.374;10.930;2023-08-30T03:37:50;12.70;;;8.20;;
65234;SDS011;51820;48.374;10.930;2023-08-30T03:40:18;13.17;;;7.40;;
65234;SDS011;51820;48.374;10.930;2023-08-30T03:42:47;13.13;;;7.63;;
65234;SDS011;51820;48.374;10.930;2023-08-30T03:45:16;12.93;;;7.70;;
65234;SDS011;51820;48.374;10.930;2023-08-30T03:47:44;13.02;;;7.97;;
65234;SDS011;51820;48.374;10.930;2023-08-30T03:50:13;11.77;;;7.57;;
65234;SDS011;51820;48.374;10.930;2023-08-30T03:52:43;14.40;;;7.67;;
65234;SDS011;51820;48.374;10.930;2023-08-30T03:55:11;14.05;;;7.43;;
65234;SDS011;51820;48.374;10.930;2023-08-30T03:57:40;13.23;;;7.47;;
65234;SDS011;51820;48.374;10.930;2023-08-30T04:00:08;12.45;;;8.07;;
65234;SDS011;51820;48.374;10.930;2023-08-30T04:02:40;13.00;;;8.07;;
65234;SDS011;51820;48.374;10.930;2023-08-30T04:05:11;12.33;;;7.30;;
65234;SDS011;51820;48.374;10.930;2023-08-30T04:07:39;13.70;;;7.43;;
65234;SDS011;51820;48.374;10.930;2023-08-30T04:10:09;12.95;;;7.95;;
65234;SDS011;51820;48.374;10.930;2023-08-30T04:12:39;14.45;;;8.13;;
65234;SDS011;51820;48.374;10.930;2023-08-30T04:15:08;12.73;;;7.78;;
65234;SDS011;51820;48.374;10.930;2023-08-30T04:17:39;16.77;;;8.43;;
65234;SDS011;51820;48.374;10.930;2023-08-30T04:20:07;12.73;;;7.53;;
65234;SDS011;51820;48.374;10.930;2023-08-30T04:22:36;12.48;;;7.47;;
65234;SDS011;51820;48.374;10.930;2023-08-30T04:25:05;13.00;;;7.78;;
65234;SDS011;51820;48.374;10.930;2023-08-30T04:27:37;13.75;;;7.90;;
65234;SDS011;51820;48.374;10.930;2023-08-30T04:30:05;13.27;;;8.20;;
65234;SDS011;51820;48.374;10.930;2023-08-30T04:32:35;13.63;;;7.88;;
65234;SDS011;51820;48.374;10.930;2023-08-30T04:35:04;13.27;;;8.00;;
65234;SDS011;51820;48.374;10.930;2023-08-30T04:37:36;13.45;;;8.27;;
65234;SDS011;51820;48.374;10.930;2023-08-30T04:40:06;15.63;;;7.85;;
65234;SDS011;51820;48.374;10.930;2023-08-30T04:42:37;16.40;;;7.70;;
65234;SDS011;51820;48.374;10.930;2023-08-30T04:45:06;12.48;;;7.45;;
65234;SDS011;51820;48.374;10.930;2023-08-30T04:47:36;14.45;;;7.25;;
65234;SDS011;51820;48.374;10.930;2023-08-30T04:50:05;13.93;;;7.80;;
65234;SDS011;51820;48.374;10.930;2023-08-30T04:52:34;13.75;;;7.88;;
65234;SDS011;51820;48.374;10.930;2023-08-30T04:55:03;14.13;;;7.37;;
65234;SDS011;51820;48.374;10.930;2023-08-30T04:57:32;13.88;;;7.80;;
65234;SDS011;51820;48.374;10.930;2023-08-30T05:00:05;13.77;;;7.90;;
65234;SDS011;51820;48.374;10.930;2023-08-30T05:02:34;17.30;;;7.82;;
65234;SDS011;51820;48.374;10.930;2023-08-30T05:05:09;13.73;;;8.10;;
65234;SDS011;51820;48.374;10.930;2023-08-30T05:07:37;13.57;;;8.27;;
65234;SDS011;51820;48.374;10.930;2023-08-30T05:10:06;14.90;;;8.27;;
65234;SDS011;51820;48.374;10.930;2023-08-30T05:12:35;15.27;;;8.50;;
65234;SDS011;51820;48.374;10.930;2023-08-30T05:15:06;13.73;;;8.10;;
65234;SDS011;51820;48.374;10.930;2023-08-30T05:17:35;12.65;;;7.78;;
65234;SDS011;51820;48.374;10.930;2023-08-30T05:20:04;14.83;;;8.00;;
65234;SDS011;51820;48.374;10.930;2023-08-30T05:22:33;12.95;;;7.40;;
65234;SDS011;51820;48.374;10.930;2023-08-30T05:25:02;14.80;;;7.93;;
65234;SDS011;51820;48.374;10.930;2023-08-30T05:27:31;14.40;;;7.80;;
65234;SDS011;51820;48.374;10.930;2023-08-30T05:30:00;15.68;;;8.32;;
65234;SDS011;51820;48.374;10.930;2023-08-30T05:32:31;12.40;;;7.63;;
65234;SDS011;51820;48.374;10.930;2023-08-30T05:35:03;15.23;;;8.82;;
65234;SDS011;51820;48.374;10.930;2023-08-30T05:38:03;14.05;;;8.88;;
65234;SDS011;51820;48.374;10.930;2023-08-30T05:40:45;14.20;;;8.10;;
65234;SDS011;51820;48.374;10.930;2023-08-30T05:43:14;29.50;;;18.02;;
65234;SDS011;51820;48.374;10.930;2023-08-30T05:45:42;24.77;;;14.20;;
65234;SDS011;51820;48.374;10.930;2023-08-30T05:48:12;27.55;;;16.05;;
65234;SDS011;51820;48.374;10.930;2023-08-30T05:50:41;24.20;;;12.45;;
65234;SDS011;51820;48.374;10.930;2023-08-30T05:53:11;16.73;;;8.65;;
65234;SDS011;51820;48.374;10.930;2023-08-30T05:55:41;16.65;;;9.60;;
65234;SDS011;51820;48.374;10.930;2023-08-30T05:58:09;15.00;;;8.40;;
65234;SDS011;51820;48.374;10.930;2023-08-30T06:00:38;15.68;;;8.57;;
65234;SDS011;51820;48.374;10.930;2023-08-30T06:03:06;15.65;;;8.63;;
65234;SDS011;51820;48.374;10.930;2023-08-30T06:05:36;13.00;;;8.05;;
65234;SDS011;51820;48.374;10.930;2023-08-30T06:08:05;12.85;;;7.90;;
65234;SDS011;51820;48.374;10.930;2023-08-30T06:10:36;15.47;;;8.60;;
65234;SDS011;51820;48.374;10.930;2023-08-30T06:13:05;15.98;;;8.98;;
65234;SDS011;51820;48.374;10.930;2023-08-30T06:15:34;15.73;;;8.90;;
65234;SDS011;51820;48.374;10.930;2023-08-30T06:18:04;15.05;;;9.38;;
65234;SDS011;51820;48.374;10.930;2023-08-30T06:20:33;15.10;;;8.90;;
65234;SDS011;51820;48.374;10.930;2023-08-30T06:23:03;15.50;;;9.13;;
65234;SDS011;51820;48.374;10.930;2023-08-30T06:25:31;16.05;;;8.93;;
65234;SDS011;51820;48.374;10.930;2023-08-30T06:28:00;17.85;;;8.90;;
65234;SDS011;51820;48.374;10.930;2023-08-30T06:30:29;15.65;;;8.88;;
65234;SDS011;51820;48.374;10.930;2023-08-30T06:32:58;21.15;;;9.25;;
65234;SDS011;51820;48.374;10.930;2023-08-30T06:35:26;16.50;;;9.07;;
65234;SDS011;51820;48.374;10.930;2023-08-30T06:37:55;15.95;;;8.75;;
65234;SDS011;51820;48.374;10.930;2023-08-30T06:40:24;14.38;;;8.77;;
65234;SDS011;51820;48.374;10.930;2023-08-30T06:42:53;14.85;;;8.68;;
65234;SDS011;51820;48.374;10.930;2023-08-30T06:45:21;15.35;;;8.90;;
65234;SDS011;51820;48.374;10.930;2023-08-30T06:47:50;15.77;;;8.83;;
65234;SDS011;51820;48.374;10.930;2023-08-30T06:50:19;17.55;;;9.25;;
65234;SDS011;51820;48.374;10.930;2023-08-30T06:52:47;15.30;;;8.65;;
65234;SDS011;51820;48.374;10.930;2023-08-30T06:55:16;17.55;;;9.43;;
65234;SDS011;51820;48.374;10.930;2023-08-30T06:57:47;16.52;;;9.73;;
65234;SDS011;51820;48.374;10.930;2023-08-30T07:00:16;15.13;;;8.87;;
65234;SDS011;51820;48.374;10.930;2023-08-30T07:02:45;14.75;;;8.32;;
65234;SDS011;51820;48.374;10.930;2023-08-30T07:05:13;15.43;;;10.20;;
65234;SDS011;51820;48.374;10.930;2023-08-30T07:07:42;18.45;;;10.18;;
65234;SDS011;51820;48.374;10.930;2023-08-30T07:10:11;13.98;;;9.35;;
65234;SDS011;51820;48.374;10.930;2023-08-30T07:12:40;14.83;;;8.93;;
65234;SDS011;51820;48.374;10.930;2023-08-30T07:15:10;15.05;;;9.57;;
65234;SDS011;51820;48.374;10.930;2023-08-30T07:17:39;13.30;;;8.68;;
65234;SDS011;51820;48.374;10.930;2023-08-30T07:20:19;16.52;;;9.35;;
65234;SDS011;51820;48.374;10.930;2023-08-30T07:22:47;15.23;;;8.85;;
65234;SDS011;51820;48.374;10.930;2023-08-30T07:25:16;18.13;;;9.33;;
65234;SDS011;51820;48.374;10.930;2023-08-30T07:27:44;13.73;;;8.30;;
65234;SDS011;51820;48.374;10.930;2023-08-30T07:30:14;14.55;;;8.93;;
65234;SDS011;51820;48.374;10.930;2023-08-30T07:32:43;15.07;;;9.20;;
65234;SDS011;51820;48.374;10.930;2023-08-30T07:35:11;14.95;;;8.80;;
65234;SDS011;51820;48.374;10.930;2023-08-30T07:37:41;16.27;;;8.93;;
65234;SDS011;51820;48.374;10.930;2023-08-30T07:40:10;13.98;;;8.73;;
65234;SDS011;51820;48.374;10.930;2023-08-30T07:42:38;14.60;;;8.60;;
65234;SDS011;51820;48.374;10.930;2023-08-30T07:45:07;16.52;;;8.70;;
65234;SDS011;51820;48.374;10.930;2023-08-30T07:47:38;15.13;;;8.40;;
65234;SDS011;51820;48.374;10.930;2023-08-30T07:50:06;16.97;;;9.17;;
65234;SDS011;51820;48.374;10.930;2023-08-30T07:52:35;16.63;;;8.80;;
65234;SDS011;51820;48.374;10.930;2023-08-30T07:55:12;15.13;;;9.30;;
65234;SDS011;51820;48.374;10.930;2023-08-30T07:57:41;15.52;;;8.95;;
65234;SDS011;51820;48.374;10.930;2023-08-30T08:00:10;17.45;;;9.02;;
65234;SDS011;51820;48.374;10.930;2023-08-30T08:02:43;16.67;;;9.20;;
65234;SDS011;51820;48.374;10.930;2023-08-30T08:05:11;17.10;;;10.18;;
65234;SDS011;51820;48.374;10.930;2023-08-30T08:07:42;17.25;;;8.60;;
65234;SDS011;51820;48.374;10.930;2023-08-30T08:10:11;15.35;;;8.60;;
65234;SDS011;51820;48.374;10.930;2023-08-30T08:12:39;14.93;;;9.10;;
65234;SDS011;51820;48.374;10.930;2023-08-30T08:15:08;13.40;;;8.53;;
65234;SDS011;51820;48.374;10.930;2023-08-30T08:17:37;12.75;;;7.75;;
65234;SDS011;51820;48.374;10.930;2023-08-30T08:20:07;14.80;;;8.35;;
65234;SDS011;51820;48.374;10.930;2023-08-30T08:22:36;13.93;;;8.65;;
65234;SDS011;51820;48.374;10.930;2023-08-30T08:25:04;14.93;;;8.52;;
65234;SDS011;51820;48.374;10.930;2023-08-30T08:27:36;14.67;;;9.10;;
65234;SDS011;51820;48.374;10.930;2023-08-30T08:30:05;14.65;;;8.27;;
65234;SDS011;51820;48.374;10.930;2023-08-30T08:32:34;15.35;;;9.02;;
65234;SDS011;51820;48.374;10.930;2023-08-30T08:35:03;15.88;;;8.77;;
65234;SDS011;51820;48.374;10.930;2023-08-30T08:37:33;12.80;;;8.40;;
65234;SDS011;51820;48.374;10.930;2023-08-30T08:40:01;12.37;;;7.60;;
65234;SDS011;51820;48.374;10.930;2023-08-30T08:42:35;14.18;;;7.43;;
65234;SDS011;51820;48.374;10.930;2023-08-30T08:45:04;11.77;;;6.93;;
65234;SDS011;51820;48.374;10.930;2023-08-30T08:47:32;13.32;;;6.57;;
65234;SDS011;51820;48.374;10.930;2023-08-30T08:50:01;10.27;;;5.97;;
65234;SDS011;51820;48.374;10.930;2023-08-30T08:52:30;9.70;;;5.57;;
65234;SDS011;51820;48.374;10.930;2023-08-30T08:55:10;8.80;;;5.38;;
65234;SDS011;51820;48.374;10.930;2023-08-30T08:57:39;9.77;;;5.70;;
65234;SDS011;51820;48.374;10.930;2023-08-30T09:00:08;10.13;;;5.35;;
65234;SDS011;51820;48.374;10.930;2023-08-30T09:02:36;10.32;;;6.25;;
65234;SDS011;51820;48.374;10.930;2023-08-30T09:05:07;9.27;;;5.40;;
65234;SDS011;51820;48.374;10.930;2023-08-30T09:07:35;11.00;;;6.05;;
65234;SDS011;51820;48.374;10.930;2023-08-30T09:10:05;9.98;;;5.65;;
65234;SDS011;51820;48.374;10.930;2023-08-30T09:12:35;11.07;;;5.30;;
65234;SDS011;51820;48.374;10.930;2023-08-30T09:15:03;11.75;;;5.13;;
65234;SDS011;51820;48.374;10.930;2023-08-30T09:17:35;8.77;;;5.13;;
65234;SDS011;51820;48.374;10.930;2023-08-30T09:20:07;10.40;;;4.60;;
65234;SDS011;51820;48.374;10.930;2023-08-30T09:22:37;8.18;;;4.38;;
65234;SDS011;51820;48.374;10.930;2023-08-30T09:25:06;9.55;;;4.13;;
65234;SDS011;51820;48.374;10.930;2023-08-30T09:27:39;7.50;;;3.78;;
65234;SDS011;51820;48.374;10.930;2023-08-30T09:30:08;8.07;;;3.43;;
65234;SDS011;51820;48.374;10.930;2023-08-30T09:32:38;6.20;;;3.40;;
65234;SDS011;51820;48.374;10.930;2023-08-30T09:35:08;7.45;;;4.00;;
65234;SDS011;51820;48.374;10.930;2023-08-30T09:37:37;6.93;;;3.85;;
65234;SDS011;51820;48.374;10.930;2023-08-30T09:40:06;7.18;;;3.80;;
65234;SDS011;51820;48.374;10.930;2023-08-30T09:42:41;6.47;;;3.60;;
65234;SDS011;51820;48.374;10.930;2023-08-30T09:45:18;6.80;;;3.60;;
65234;SDS011;51820;48.374;10.930;2023-08-30T09:47:47;6.68;;;3.33;;
65234;SDS011;51820;48.374;10.930;2023-08-30T09:50:16;7.00;;;3.70;;
65234;SDS011;51820;48.374;10.930;2023-08-30T09:52:46;7.72;;;4.00;;
65234;SDS011;51820;48.374;10.930;2023-08-30T09:55:16;9.40;;;4.13;;
65234;SDS011;51820;48.374;10.930;2023-08-30T09:57:47;8.88;;;3.70;;
65234;SDS011;51820;48.374;10.930;2023-08-30T10:00:28;9.35;;;4.22;;
65234;SDS011;51820;48.374;10.930;2023-08-30T10:03:00;6.15;;;3.88;;
65234;SDS011;51820;48.374;10.930;2023-08-30T10:05:49;7.80;;;4.15;;
65234;SDS011;51820;48.374;10.930;2023-08-30T10:08:18;7.50;;;4.17;;
65234;SDS011;51820;48.374;10.930;2023-08-30T10:10:49;7.03;;;3.60;;
65234;SDS011;51820;48.374;10.930;2023-08-30T10:13:19;8.13;;;3.40;;
65234;SDS011;51820;48.374;10.930;2023-08-30T10:15:49;7.03;;;3.60;;
65234;SDS011;51820;48.374;10.930;2023-08-30T10:18:25;6.10;;;3.53;;
65234;SDS011;51820;48.374;10.930;2023-08-30T10:20:55;6.60;;;3.67;;
65234;SDS011;51820;48.374;10.930;2023-08-30T10:23:33;6.38;;;3.78;;
65234;SDS011;51820;48.374;10.930;2023-08-30T10:26:11;6.05;;;3.53;;
65234;SDS011;51820;48.374;10.930;2023-08-30T10:28:44;6.47;;;3.25;;
65234;SDS011;51820;48.374;10.930;2023-08-30T10:31:16;5.88;;;2.95;;
65234;SDS011;51820;48.374;10.930;2023-08-30T10:33:48;6.33;;;3.13;;
65234;SDS011;51820;48.374;10.930;2023-08-30T10:36:20;5.50;;;2.97;;
65234;SDS011;51820;48.374;10.930;2023-08-30T10:38:57;5.72;;;2.90;;
65234;SDS011;51820;48.374;10.930;2023-08-30T10:41:26;5.82;;;2.88;;
65234;SDS011;51820;48.374;10.930;2023-08-30T10:44:16;5.40;;;2.67;;
65234;SDS011;51820;48.374;10.930;2023-08-30T10:47:02;6.13;;;3.00;;
65234;SDS011;51820;48.374;10.930;2023-08-30T10:49:46;6.07;;;3.28;;
65234;SDS011;51820;48.374;10.930;2023-08-30T10:52:21;6.72;;;4.00;;
65234;SDS011;51820;48.374;10.930;2023-08-30T10:54:50;6.47;;;3.75;;
65234;SDS011;51820;48.374;10.930;2023-08-30T10:57:19;10.02;;;5.60;;
65234;SDS011;51820;48.374;10.930;2023-08-30T11:02:48;7.43;;;3.28;;
65234;SDS011;51820;48.374;10.930;2023-08-30T11:05:29;5.78;;;2.92;;
65234;SDS011;51820;48.374;10.930;2023-08-30T11:08:20;7.40;;;3.22;;
65234;SDS011;51820;48.374;10.930;2023-08-30T11:10:49;7.35;;;2.45;;
65234;SDS011;51820;48.374;10.930;2023-08-30T11:17:05;5.03;;;2.38;;
65234;SDS011;51820;48.374;10.930;2023-08-30T11:19:40;4.60;;;2.20;;
65234;SDS011;51820;48.374;10.930;2023-08-30T11:22:08;5.72;;;2.80;;
65234;SDS011;51820;48.374;10.930;2023-08-30T11:24:37;6.70;;;2.60;;
65234;SDS011;51820;48.374;10.930;2023-08-30T11:27:09;7.50;;;2.20;;
65234;SDS011;51820;48.374;10.930;2023-08-30T11:29:39;5.05;;;2.05;;
65234;SDS011;51820;48.374;10.930;2023-08-30T11:32:09;5.55;;;2.22;;
65234;SDS011;51820;48.374;10.930;2023-08-30T11:34:37;5.75;;;2.10;;
65234;SDS011;51820;48.374;10.930;2023-08-30T11:37:06;5.68;;;2.30;;
65234;SDS011;51820;48.374;10.930;2023-08-30T11:39:37;5.17;;;2.27;;
65234;SDS011;51820;48.374;10.930;2023-08-30T11:42:06;4.95;;;2.15;;
65234;SDS011;51820;48.374;10.930;2023-08-30T11:44:44;6.10;;;2.10;;
65234;SDS011;51820;48.374;10.930;2023-08-30T11:47:19;5.82;;;1.98;;
65234;SDS011;51820;48.374;10.930;2023-08-30T11:49:48;4.60;;;1.90;;
65234;SDS011;51820;48.374;10.930;2023-08-30T11:52:19;4.83;;;1.73;;
65234;SDS011;51820;48.374;10.930;2023-08-30T11:54:49;4.90;;;1.83;;
65234;SDS011;51820;48.374;10.930;2023-08-30T11:57:18;6.15;;;2.40;;
65234;SDS011;51820;48.374;10.930;2023-08-30T11:59:50;4.80;;;2.10;;
65234;SDS011;51820;48.374;10.930;2023-08-30T12:02:20;4.90;;;2.00;;
65234;SDS011;51820;48.374;10.930;2023-08-30T12:04:50;4.30;;;1.90;;
65234;SDS011;51820;48.374;10.930;2023-08-30T12:07:22;4.50;;;2.00;;
65234;SDS011;51820;48.374;10.930;2023-08-30T12:09:52;4.70;;;2.10;;
65234;SDS011;51820;48.374;10.930;2023-08-30T12:12:32;6.00;;;2.00;;
65234;SDS011;51820;48.374;10.930;2023-08-30T12:15:13;4.72;;;2.20;;
65234;SDS011;51820;48.374;10.930;2023-08-30T12:18:07;4.73;;;2.00;;
65234;SDS011;51820;48.374;10.930;2023-08-30T12:20:35;4.40;;;1.95;;
65234;SDS011;51820;48.374;10.930;2023-08-30T12:23:07;7.70;;;2.58;;
65234;SDS011;51820;48.374;10.930;2023-08-30T12:25:58;4.72;;;2.10;;
65234;SDS011;51820;48.374;10.930;2023-08-30T12:28:27;4.95;;;2.50;;
65234;SDS011;51820;48.374;10.930;2023-08-30T12:30:56;5.23;;;2.00;;
65234;SDS011;51820;48.374;10.930;2023-08-30T12:33:28;6.75;;;2.20;;
65234;SDS011;51820;48.374;10.930;2023-08-30T12:35:57;5.20;;;1.98;;
65234;SDS011;51820;48.374;10.930;2023-08-30T12:38:28;7.28;;;2.08;;
65234;SDS011;51820;48.374;10.930;2023-08-30T12:40:56;6.90;;;2.38;;
65234;SDS011;51820;48.374;10.930;2023-08-30T12:43:25;4.60;;;1.83;;
65234;SDS011;51820;48.374;10.930;2023-08-30T12:45:53;7.82;;;2.08;;
65234;SDS011;51820;48.374;10.930;2023-08-30T12:48:25;4.18;;;1.70;;
65234;SDS011;51820;48.374;10.930;2023-08-30T12:51:10;5.03;;;2.25;;
65234;SDS011;51820;48.374;10.930;2023-08-30T12:53:40;4.60;;;1.80;;
65234;SDS011;51820;48.374;10.930;2023-08-30T12:56:10;5.17;;;1.67;;
65234;SDS011;51820;48.374;10.930;2023-08-30T12:58:41;4.55;;;1.50;;
65234;SDS011;51820;48.374;10.930;2023-08-30T13:01:10;6.55;;;1.83;;
65234;SDS011;51820;48.374;10.930;2023-08-30T13:03:38;5.72;;;2.10;;
65234;SDS011;51820;48.374;10.930;2023-08-30T13:06:07;4.93;;;2.10;;
65234;SDS011;51820;48.374;10.930;2023-08-30T13:08:36;7.10;;;2.63;;
65234;SDS011;51820;48.374;10.930;2023-08-30T13:11:05;6.18;;;2.38;;
65234;SDS011;51820;48.374;10.930;2023-08-30T13:13:45;5.85;;;2.22;;
65234;SDS011;51820;48.374;10.930;2023-08-30T13:16:13;4.82;;;1.73;;
65234;SDS011;51820;48.374;10.930;2023-08-30T13:18:41;5.57;;;2.05;;
65234;SDS011;51820;48.374;10.930;2023-08-30T13:21:10;4.87;;;1.90;;
65234;SDS011;51820;48.374;10.930;2023-08-30T13:23:42;4.57;;;2.03;;
65234;SDS011;51820;48.374;10.930;2023-08-30T13:26:10;5.72;;;2.10;;
65234;SDS011;51820;48.374;10.930;2023-08-30T13:28:38;4.50;;;1.63;;
65234;SDS011;51820;48.374;10.930;2023-08-30T13:31:07;4.43;;;1.73;;
65234;SDS011;51820;48.374;10.930;2023-08-30T13:33:36;4.87;;;2.00;;
65234;SDS011;51820;48.374;10.930;2023-08-30T13:36:04;5.22;;;1.70;;
65234;SDS011;51820;48.374;10.930;2023-08-30T13:38:33;5.75;;;2.00;;
65234;SDS011;51820;48.374;10.930;2023-08-30T13:41:03;5.05;;;1.75;;
65234;SDS011;51820;48.374;10.930;2023-08-30T13:43:31;6.97;;;2.13;;
65234;SDS011;51820;48.374;10.930;2023-08-30T13:46:00;4.53;;;1.87;;
65234;SDS011;51820;48.374;10.930;2023-08-30T13:48:28;5.32;;;1.80;;
65234;SDS011;51820;48.374;10.930;2023-08-30T13:50:57;4.82;;;2.00;;
65234;SDS011;51820;48.374;10.930;2023-08-30T13:53:26;4.40;;;1.60;;
65234;SDS011;51820;48.374;10.930;2023-08-30T13:55:54;6.72;;;2.53;;
65234;SDS011;51820;48.374;10.930;2023-08-30T13:58:24;15.07;;;5.13;;
65234;SDS011;51820;48.374;10.930;2023-08-30T14:00:52;12.38;;;4.45;;
65234;SDS011;51820;48.374;10.930;2023-08-30T14:03:21;10.30;;;3.85;;
65234;SDS011;51820;48.374;10.930;2023-08-30T14:05:49;8.65;;;3.00;;
65234;SDS011;51820;48.374;10.930;2023-08-30T14:08:18;4.95;;;1.80;;
65234;SDS011;51820;48.374;10.930;2023-08-30T14:10:54;4.27;;;1.57;;
65234;SDS011;51820;48.374;10.930;2023-08-30T14:13:38;4.82;;;1.90;;
65234;SDS011;51820;48.374;10.930;2023-08-30T14:16:06;4.10;;;1.40;;
65234;SDS011;51820;48.374;10.930;2023-08-30T14:18:35;4.00;;;1.30;;
65234;SDS011;51820;48.374;10.930;2023-08-30T14:21:04;4.75;;;1.50;;
65234;SDS011;51820;48.374;10.930;2023-08-30T14:23:34;4.00;;;1.37;;
65234;SDS011;51820;48.374;10.930;2023-08-30T14:26:03;7.40;;;1.48;;
65234;SDS011;51820;48.374;10.930;2023-08-30T14:28:35;4.90;;;1.55;;
65234;SDS011;51820;48.374;10.930;2023-08-30T14:31:08;3.65;;;1.10;;
65234;SDS011;51820;48.374;10.930;2023-08-30T14:33:39;4.30;;;1.20;;
65234;SDS011;51820;48.374;10.930;2023-08-30T14:36:11;4.13;;;1.30;;
65234;SDS011;51820;48.374;10.930;2023-08-30T14:38:40;4.35;;;1.30;;
65234;SDS011;51820;48.374;10.930;2023-08-30T14:41:08;3.90;;;1.50;;
65234;SDS011;51820;48.374;10.930;2023-08-30T14:43:37;5.22;;;1.55;;
65234;SDS011;51820;48.374;10.930;2023-08-30T14:46:05;4.53;;;1.58;;
65234;SDS011;51820;48.374;10.930;2023-08-30T14:48:42;3.80;;;1.40;;
65234;SDS011;51820;48.374;10.930;2023-08-30T14:51:10;5.03;;;2.17;;
65234;SDS011;51820;48.374;10.930;2023-08-30T14:53:39;4.38;;;1.80;;